createdAt,value
2022-08-07T00:02:41.129Z,99567.56
2022-08-07T00:05:04.008Z,99567.56
2022-08-07T00:07:39.236Z,99571.97
2022-08-07T00:10:26.091Z,99576.91
2022-08-07T00:13:00.014Z,99586.56
2022-08-07T00:15:35.869Z,99584.97
2022-08-07T00:18:05.926Z,99591.75
2022-08-07T00:20:35.435Z,99597.63
2022-08-07T00:23:07.975Z,99597.16
2022-08-07T00:25:37.388Z,99590.03
2022-08-07T00:28:10.769Z,99600.56
2022-08-07T00:30:38.776Z,99591.16
2022-08-07T00:33:08.475Z,99588.25
2022-08-07T00:35:36.839Z,99593.41
2022-08-07T00:38:06.461Z,99590.44
2022-08-07T00:40:39.837Z,99600.94
2022-08-07T00:43:09.939Z,99590.53
2022-08-07T00:45:38.623Z,99590.44
2022-08-07T00:48:09.049Z,99588.50
2022-08-07T00:50:50.817Z,99587.75
2022-08-07T00:53:20.921Z,99590.63
2022-08-07T00:56:02.230Z,99590.03
2022-08-07T00:58:32.530Z,99590.88
2022-08-07T01:01:00.737Z,99592.03
2022-08-07T01:03:57.236Z,99604.63
2022-08-07T01:06:17.395Z,99593.78
2022-08-07T01:08:53.641Z,99599.22
2022-08-07T01:12:23.618Z,99581.03
2022-08-07T01:14:11.052Z,99596.28
2022-08-07T01:16:38.974Z,99594.94
2022-08-07T01:19:19.109Z,99585.59
2022-08-07T01:21:53.252Z,99592.78
2022-08-07T01:24:24.019Z,99592.28
2022-08-07T01:26:53.711Z,99592.44
2022-08-07T01:29:22.209Z,99586.63
2022-08-07T01:31:50.447Z,99586.13
2022-08-07T01:34:19.516Z,99589.44
2022-08-07T01:36:52.947Z,99588.03
2022-08-07T01:39:26.887Z,99584.13
2022-08-07T01:42:38.748Z,99595.84
2022-08-07T01:44:57.344Z,99596.88
2022-08-07T01:48:18.455Z,99597.09
2022-08-07T01:50:14.370Z,99585.41
2022-08-07T01:52:49.634Z,99589.50
2022-08-07T01:55:25.512Z,99594.94
2022-08-07T01:58:01.562Z,99598.72
2022-08-07T02:00:45.371Z,99591.88
2022-08-07T02:03:21.667Z,99604.84
2022-08-07T02:05:59.922Z,99604.28
2022-08-07T02:08:31.034Z,99602.47
2022-08-07T02:10:59.732Z,99601.53
2022-08-07T02:14:00.698Z,99603.50
2022-08-07T02:16:28.703Z,99601.22
2022-08-07T02:19:05.345Z,99612.38
2022-08-07T02:21:55.361Z,99606.16
2022-08-07T02:24:29.383Z,99621.31
2022-08-07T02:26:58.661Z,99611.50
2022-08-07T02:29:29.323Z,99613.47
2022-08-07T02:31:58.415Z,99612.72
2022-08-07T02:34:27.790Z,99608.38
2022-08-07T02:36:56.201Z,99616.66
2022-08-07T02:39:43.181Z,99614.50
2022-08-07T02:42:18.005Z,99615.88
2022-08-07T02:44:48.196Z,99616.59
2022-08-07T02:47:19.484Z,99618.78
2022-08-07T02:49:58.020Z,99618.28
2022-08-07T02:52:32.323Z,99604.72
2022-08-07T02:55:04.596Z,99617.63
2022-08-07T02:57:54.057Z,99617.00
2022-08-07T03:00:22.655Z,99622.75
2022-08-07T03:02:55.022Z,99626.22
2022-08-07T03:05:24.640Z,99629.34
2022-08-07T03:08:08.151Z,99628.03
2022-08-07T03:10:40.978Z,99626.53
2022-08-07T03:13:15.096Z,99636.19
2022-08-07T03:15:56.810Z,99626.56
2022-08-07T03:18:35.047Z,99627.56
2022-08-07T03:21:04.624Z,99636.53
2022-08-07T03:24:18.278Z,99629.47
2022-08-07T03:26:29.699Z,99635.78
2022-08-07T03:28:58.531Z,99628.38
2022-08-07T03:31:43.170Z,99622.44
2022-08-07T03:34:18.478Z,99628.16
2022-08-07T03:36:52.822Z,99618.19
2022-08-07T03:39:58.958Z,99626.75
2022-08-07T03:42:11.339Z,99625.81
2022-08-07T03:44:40.571Z,99631.69
2022-08-07T03:47:13.949Z,99645.63
2022-08-07T03:49:52.001Z,99649.09
2022-08-07T03:52:26.195Z,99646.31
2022-08-07T03:54:57.271Z,99659.38
2022-08-07T03:58:35.420Z,99651.03
2022-08-07T04:00:30.548Z,99655.03
2022-08-07T04:03:03.677Z,99658.66
2022-08-07T04:05:41.010Z,99666.34
2022-08-07T04:08:11.743Z,99651.81
2022-08-07T04:10:40.019Z,99658.50
2022-08-07T04:13:15.288Z,99655.69
2022-08-07T04:15:45.537Z,99661.31
2022-08-07T04:18:58.537Z,99661.72
2022-08-07T04:21:03.151Z,99665.53
2022-08-07T04:23:43.348Z,99658.19
2022-08-07T04:26:23.327Z,99663.59
2022-08-07T04:28:58.550Z,99665.25
2022-08-07T04:32:02.535Z,99664.19
2022-08-07T04:34:16.754Z,99670.69
2022-08-07T04:36:45.220Z,99669.53
2022-08-07T04:39:13.212Z,99675.94
2022-08-07T04:41:50.449Z,99670.41
2022-08-07T04:44:20.146Z,99684.03
2022-08-07T04:47:08.238Z,99686.34
2022-08-07T04:49:57.477Z,99679.00
2022-08-07T04:52:31.854Z,99676.69
2022-08-07T04:55:15.273Z,99676.72
2022-08-07T04:58:12.483Z,99686.41
2022-08-07T05:00:51.157Z,99680.88
2022-08-07T05:03:59.861Z,99686.94
2022-08-07T05:06:22.844Z,99688.63
2022-08-07T05:09:02.976Z,99678.91
2022-08-07T05:11:57.407Z,99687.00
2022-08-07T05:14:52.256Z,99693.56
2022-08-07T05:17:50.177Z,99701.78
2022-08-07T05:20:09.558Z,99706.75
2022-08-07T05:22:39.519Z,99709.38
2022-08-07T05:25:11.859Z,99698.09
2022-08-07T05:28:02.726Z,99709.06
2022-08-07T05:30:43.814Z,99705.47
2022-08-07T05:33:17.904Z,99711.53
2022-08-07T05:35:46.854Z,99704.47
2022-08-07T05:39:00.109Z,99705.94
2022-08-07T05:41:12.269Z,99704.16
2022-08-07T05:44:08.562Z,99703.00
2022-08-07T05:46:32.651Z,99714.50
2022-08-07T05:49:12.069Z,99712.00
2022-08-07T05:51:41.126Z,99704.78
2022-08-07T05:54:30.071Z,99709.38
2022-08-07T05:56:58.858Z,99702.94
2022-08-07T05:59:28.121Z,99707.53
2022-08-07T06:01:58.286Z,99703.06
2022-08-07T06:04:29.914Z,99707.09
2022-08-07T06:07:03.683Z,99697.66
2022-08-07T06:10:04.486Z,99699.78
2022-08-07T06:12:27.728Z,99704.63
2022-08-07T06:15:02.955Z,99708.31
2022-08-07T06:17:37.629Z,99705.09
2022-08-07T06:20:12.744Z,99705.34
2022-08-07T06:23:02.341Z,99707.44
2022-08-07T06:25:54.298Z,99711.00
2022-08-07T06:28:27.670Z,99713.94
2022-08-07T06:30:58.248Z,99709.22
2022-08-07T06:33:26.393Z,99707.78
2022-08-07T06:36:12.295Z,99710.84
2022-08-07T06:38:59.390Z,99714.13
2022-08-07T06:42:02.628Z,99715.69
2022-08-07T06:44:24.226Z,99708.78
2022-08-07T06:46:53.517Z,99714.44
2022-08-07T06:49:51.584Z,99721.75
2022-08-07T06:52:31.515Z,99717.84
2022-08-07T06:55:32.524Z,99727.16
2022-08-07T06:57:57.250Z,99726.50
2022-08-07T07:00:28.487Z,99719.88
2022-08-07T07:02:58.169Z,99722.22
2022-08-07T07:06:05.377Z,99726.94
2022-08-07T07:08:26.514Z,99727.91
2022-08-07T07:10:56.815Z,99732.31
2022-08-07T07:13:55.582Z,99734.91
2022-08-07T07:16:19.874Z,99739.25
2022-08-07T07:18:50.814Z,99741.47
2022-08-07T07:21:22.026Z,99738.56
2022-08-07T07:24:09.622Z,99739.72
2022-08-07T07:26:40.936Z,99736.44
2022-08-07T07:29:40.716Z,99733.09
2022-08-07T07:32:14.026Z,99725.25
2022-08-07T07:34:43.788Z,99729.44
2022-08-07T07:37:21.586Z,99722.69
2022-08-07T07:40:14.929Z,99725.56
2022-08-07T07:42:43.171Z,99722.31
2022-08-07T07:45:17.416Z,99716.44
2022-08-07T07:47:53.277Z,99714.81
2022-08-07T07:50:34.300Z,99720.84
2022-08-07T07:53:20.437Z,99722.00
2022-08-07T07:55:57.906Z,99716.16
2022-08-07T07:58:30.856Z,99716.47
2022-08-07T08:02:02.263Z,99730.53
2022-08-07T08:04:06.026Z,99723.56
2022-08-07T08:06:35.918Z,99730.66
2022-08-07T08:09:05.588Z,99736.22
2022-08-07T08:12:00.136Z,99730.19
2022-08-07T08:14:26.558Z,99731.59
2022-08-07T08:16:55.697Z,99725.75
2022-08-07T08:20:18.006Z,99720.78
2022-08-07T08:22:55.865Z,99730.31
2022-08-07T08:25:42.225Z,99722.59
2022-08-07T08:28:23.878Z,99720.16
2022-08-07T08:31:30.417Z,99721.59
2022-08-07T08:34:08.312Z,99694.81
2022-08-07T08:36:37.326Z,99733.75
2022-08-07T08:39:07.249Z,99726.06
2022-08-07T08:41:59.050Z,99723.59
2022-08-07T08:44:41.210Z,99724.69
2022-08-07T08:47:19.927Z,99720.41
2022-08-07T08:50:04.619Z,99713.16
2022-08-07T08:52:40.667Z,99695.69
2022-08-07T08:55:55.398Z,99723.63
2022-08-07T08:58:25.078Z,99732.66
2022-08-07T09:01:15.113Z,99721.25
2022-08-07T09:03:56.914Z,99727.13
2022-08-07T09:06:54.219Z,99710.47
2022-08-07T09:09:57.149Z,99723.81
2022-08-07T09:12:42.608Z,99693.31
2022-08-07T09:16:24.603Z,99715.16
2022-08-07T09:18:37.890Z,99710.34
2022-08-07T09:21:34.428Z,99710.06
2022-08-07T09:24:32.814Z,99704.56
2022-08-07T09:26:57.678Z,99707.41
2022-08-07T09:30:03.321Z,99704.28
2022-08-07T09:32:47.766Z,99712.13
2022-08-07T09:36:05.246Z,99715.06
2022-08-07T09:38:17.987Z,99716.78
2022-08-07T09:40:59.679Z,99714.56
2022-08-07T09:44:03.647Z,99700.50
2022-08-07T09:47:42.630Z,99708.22
2022-08-07T09:50:01.082Z,99704.06
2022-08-07T09:52:34.933Z,99690.63
2022-08-07T09:55:16.928Z,99688.88
2022-08-07T09:58:15.656Z,99690.47
2022-08-07T10:01:01.943Z,99681.34
2022-08-07T10:04:05.778Z,99692.38
2022-08-07T10:06:55.765Z,99682.91
2022-08-07T10:10:00.044Z,99677.13
2022-08-07T10:12:53.013Z,99670.53
2022-08-07T10:15:44.170Z,99668.66
2022-08-07T10:18:26.391Z,99675.63
2022-08-07T10:21:08.691Z,99677.94
2022-08-07T10:24:06.583Z,99667.88
2022-08-07T10:27:02.655Z,99673.84
2022-08-07T10:29:54.157Z,99676.38
2022-08-07T10:32:59.844Z,99664.97
2022-08-07T10:35:55.673Z,99661.47
2022-08-07T10:38:48.042Z,99646.50
2022-08-07T10:41:47.306Z,99651.47
2022-08-07T10:44:14.651Z,99667.09
2022-08-07T10:46:54.460Z,99654.69
2022-08-07T10:49:45.405Z,99653.59
2022-08-07T10:52:20.657Z,99644.66
2022-08-07T10:55:21.143Z,99656.38
2022-08-07T10:58:06.754Z,99643.13
2022-08-07T11:01:11.699Z,99645.31
2022-08-07T11:03:52.527Z,99644.50
2022-08-07T11:06:30.472Z,99641.84
2022-08-07T11:09:02.898Z,99635.59
2022-08-07T11:11:35.697Z,99633.66
2022-08-07T11:14:44.470Z,99627.91
2022-08-07T11:17:01.970Z,99626.72
2022-08-07T11:19:34.732Z,99620.44
2022-08-07T11:22:18.775Z,99629.25
2022-08-07T11:24:57.854Z,99629.72
2022-08-07T11:28:00.804Z,99621.03
2022-08-07T11:30:20.001Z,99628.00
2022-08-07T11:33:16.550Z,99615.22
2022-08-07T11:36:00.251Z,99625.72
2022-08-07T11:38:32.961Z,99625.81
2022-08-07T11:41:05.261Z,99619.59
2022-08-07T11:43:54.896Z,99611.69
2022-08-07T11:46:36.734Z,99620.94
2022-08-07T11:50:18.518Z,99611.25
2022-08-07T11:52:35.738Z,99616.06
2022-08-07T11:55:18.616Z,99612.59
2022-08-07T11:58:05.525Z,99615.09
2022-08-07T12:01:02.713Z,99618.50
2022-08-07T12:03:54.843Z,99628.25
2022-08-07T12:06:37.739Z,99623.88
2022-08-07T12:09:16.246Z,99603.50
2022-08-07T12:12:09.219Z,99609.28
2022-08-07T12:14:39.219Z,99606.47
2022-08-07T12:17:19.862Z,99594.59
2022-08-07T12:20:02.781Z,99602.84
2022-08-07T12:22:55.974Z,99603.75
2022-08-07T12:26:05.722Z,99610.56
2022-08-07T12:28:45.070Z,99603.31
2022-08-07T12:31:23.541Z,99599.34
2022-08-07T12:33:56.222Z,99592.97
2022-08-07T12:36:33.722Z,99581.41
2022-08-07T12:39:42.897Z,99589.25
2022-08-07T12:41:55.332Z,99588.94
2022-08-07T12:44:25.982Z,99585.00
2022-08-07T12:47:02.291Z,99588.41
2022-08-07T12:49:39.898Z,99586.38
2022-08-07T12:52:27.078Z,99580.84
2022-08-07T12:55:05.321Z,99582.53
2022-08-07T12:57:39.283Z,99583.06
2022-08-07T13:00:33.021Z,99586.38
2022-08-07T13:03:26.956Z,99582.88
2022-08-07T13:06:26.951Z,99560.28
2022-08-07T13:09:01.487Z,99563.28
2022-08-07T13:12:00.920Z,99571.41
2022-08-07T13:14:38.075Z,99563.34
2022-08-07T13:17:40.718Z,99547.59
2022-08-07T13:20:27.471Z,99558.25
2022-08-07T13:23:00.262Z,99555.91
2022-08-07T13:25:41.783Z,99552.91
2022-08-07T13:28:18.289Z,99565.13
2022-08-07T13:31:01.459Z,99553.50
2022-08-07T13:34:31.527Z,99552.56
2022-08-07T13:36:30.059Z,99557.38
2022-08-07T13:39:02.777Z,99552.75
2022-08-07T13:41:47.386Z,99552.41
2022-08-07T13:44:26.152Z,99554.88
2022-08-07T13:46:59.489Z,99554.50
2022-08-07T13:50:32.842Z,99552.88
2022-08-07T13:52:32.053Z,99544.75
2022-08-07T13:55:07.805Z,99545.53
2022-08-07T13:57:59.270Z,99557.28
2022-08-07T14:00:50.694Z,99543.09
2022-08-07T14:03:29.337Z,99549.22
2022-08-07T14:06:12.921Z,99533.44
2022-08-07T14:08:45.228Z,99531.41
2022-08-07T14:11:19.165Z,99535.38
2022-08-07T14:13:55.350Z,99528.50
2022-08-07T14:16:31.531Z,99532.97
2022-08-07T14:19:02.749Z,99527.72
2022-08-07T14:22:03.526Z,99531.72
2022-08-07T14:24:23.713Z,99521.56
2022-08-07T14:26:57.363Z,99512.53
2022-08-07T14:30:05.044Z,99513.53
2022-08-07T14:32:20.201Z,99510.22
2022-08-07T14:34:53.435Z,99509.69
2022-08-07T14:37:23.713Z,99509.56
2022-08-07T14:40:17.214Z,99495.84
2022-08-07T14:43:00.779Z,99503.16
2022-08-07T14:45:46.072Z,99512.09
2022-08-07T14:54:10.130Z,99503.19
2022-08-07T14:56:51.185Z,99498.59
2022-08-07T15:02:34.105Z,99497.47
2022-08-07T15:05:02.562Z,99504.31
2022-08-07T15:07:51.278Z,99489.03
2022-08-07T15:13:22.451Z,99487.88
2022-08-07T15:15:57.781Z,99496.47
2022-08-07T15:21:45.036Z,99488.00
2022-08-07T15:27:08.320Z,99479.88
2022-08-07T15:30:10.334Z,99485.84
2022-08-07T15:32:39.512Z,99467.97
2022-08-07T15:35:19.156Z,99483.41
2022-08-07T15:38:30.568Z,99475.78
2022-08-07T15:41:00.164Z,99468.19
2022-08-07T15:43:52.894Z,99472.22
2022-08-07T15:46:31.638Z,99480.66
2022-08-07T15:49:14.641Z,99471.78
2022-08-07T15:54:34.446Z,99470.13
2022-08-07T15:57:03.323Z,99480.69
2022-08-07T15:59:39.238Z,99482.34
2022-08-07T16:02:15.022Z,99483.22
2022-08-07T16:04:44.033Z,99463.00
2022-08-07T16:08:32.160Z,99476.34
2022-08-07T16:10:14.831Z,99464.16
2022-08-07T16:13:01.168Z,99466.19
2022-08-07T16:15:55.641Z,99467.47
2022-08-07T16:18:49.557Z,99454.09
2022-08-07T16:22:03.060Z,99459.38
2022-08-07T16:24:33.807Z,99457.34
2022-08-07T16:27:17.922Z,99460.59
2022-08-07T16:30:09.869Z,99458.53
2022-08-07T16:32:54.414Z,99465.03
2022-08-07T16:35:56.968Z,99461.81
2022-08-07T16:39:00.055Z,99468.66
2022-08-07T16:41:41.162Z,99469.50
2022-08-07T16:44:53.873Z,99473.84
2022-08-07T16:47:56.426Z,99465.28
2022-08-07T16:50:38.752Z,99476.53
2022-08-07T16:54:01.445Z,99470.44
2022-08-07T16:56:08.954Z,99468.25
2022-08-07T16:59:14.751Z,99464.16
2022-08-07T17:01:41.386Z,99471.28
2022-08-07T17:04:14.745Z,99464.69
2022-08-07T17:07:03.482Z,99466.47
2022-08-07T17:10:06.079Z,99457.41
2022-08-07T17:12:35.827Z,99462.72
2022-08-07T17:15:11.487Z,99468.16
2022-08-07T17:17:53.102Z,99464.38
2022-08-07T17:20:33.016Z,99467.34
2022-08-07T17:23:11.441Z,99467.09
2022-08-07T17:25:52.246Z,99478.63
2022-08-07T17:28:31.249Z,99475.22
2022-08-07T17:31:16.999Z,99477.44
2022-08-07T17:34:15.072Z,99469.22
2022-08-07T17:36:57.523Z,99469.75
2022-08-07T17:42:32.800Z,99471.94
2022-08-07T17:45:05.772Z,99485.00
2022-08-07T17:47:54.304Z,99462.16
2022-08-07T17:50:30.177Z,99474.13
2022-08-07T17:53:06.103Z,99471.25
2022-08-07T17:56:00.479Z,99469.31
2022-08-07T17:58:34.170Z,99469.88
2022-08-07T18:01:20.797Z,99471.84
2022-08-07T18:04:06.958Z,99480.88
2022-08-07T18:06:43.244Z,99479.13
2022-08-07T18:09:17.993Z,99477.72
2022-08-07T18:12:19.829Z,99481.00
2022-08-07T18:15:01.416Z,99480.28
2022-08-07T18:18:45.765Z,99476.97
2022-08-07T18:21:06.520Z,99486.47
2022-08-07T18:23:43.120Z,99482.09
2022-08-07T18:26:16.545Z,99497.13
2022-08-07T18:29:04.977Z,99487.81
2022-08-07T18:32:01.333Z,99491.22
2022-08-07T18:35:00.647Z,99487.34
2022-08-07T18:38:57.674Z,99497.22
2022-08-07T18:40:42.343Z,99499.09
2022-08-07T18:43:36.727Z,99504.84
2022-08-07T18:46:21.987Z,99506.25
2022-08-07T18:50:30.025Z,99496.97
2022-08-07T18:52:35.560Z,99499.81
2022-08-07T18:55:42.843Z,99498.88
2022-08-07T18:58:15.267Z,99501.53
2022-08-07T19:00:54.358Z,99497.69
2022-08-07T19:03:36.146Z,99500.50
2022-08-07T19:06:10.390Z,99509.59
2022-08-07T19:08:59.871Z,99512.38
2022-08-07T19:12:04.761Z,99502.78
2022-08-07T19:15:02.955Z,99509.78
2022-08-07T19:18:02.390Z,99507.88
2022-08-07T19:20:39.831Z,99503.69
2022-08-07T19:23:57.144Z,99502.72
2022-08-07T19:26:24.644Z,99503.81
2022-08-07T19:30:58.293Z,99505.91
2022-08-07T19:32:10.214Z,99509.56
2022-08-07T19:34:47.730Z,99516.78
2022-08-07T19:37:18.926Z,99516.75
2022-08-07T19:40:01.953Z,99524.50
2022-08-07T19:42:40.496Z,99525.78
2022-08-07T19:46:06.204Z,99526.34
2022-08-07T19:48:06.596Z,99517.34
2022-08-07T19:50:52.457Z,99529.38
2022-08-07T19:54:33.607Z,99524.69
2022-08-07T19:58:00.064Z,99521.13
2022-08-07T19:59:02.570Z,99525.72
2022-08-07T20:01:55.918Z,99518.69
2022-08-07T20:04:53.522Z,99521.34
2022-08-07T20:07:47.046Z,99521.56
2022-08-07T20:10:36.577Z,99522.31
2022-08-07T20:16:00.271Z,99515.75
2022-08-07T20:18:32.237Z,99520.47
2022-08-07T20:21:21.378Z,99526.84
2022-08-07T20:23:54.895Z,99526.19
2022-08-07T20:26:45.240Z,99527.50
2022-08-07T20:29:47.658Z,99529.50
2022-08-07T20:32:23.065Z,99528.88
2022-08-07T20:34:58.648Z,99517.28
2022-08-07T20:37:33.993Z,99532.00
2022-08-07T20:40:32.280Z,99529.88
2022-08-07T20:42:59.997Z,99526.94
2022-08-07T20:46:25.699Z,99531.66
2022-08-07T20:48:29.940Z,99527.25
2022-08-07T20:51:00.978Z,99537.09
2022-08-07T20:54:04.617Z,99527.22
2022-08-07T20:56:26.131Z,99534.78
2022-08-07T20:58:55.453Z,99524.16
2022-08-07T21:01:23.994Z,99531.50
2022-08-07T21:04:19.763Z,99515.63
2022-08-07T21:06:53.739Z,99526.41
2022-08-07T21:09:35.571Z,99524.59
2022-08-07T21:12:30.697Z,99523.28
2022-08-07T21:15:02.394Z,99506.44
2022-08-07T21:18:01.849Z,99525.44
2022-08-07T21:20:29.671Z,99508.91
2022-08-07T21:23:08.500Z,99527.38
2022-08-07T21:25:56.264Z,99529.50
2022-08-07T21:28:50.162Z,99525.25
2022-08-07T21:31:31.643Z,99533.56
2022-08-07T21:34:19.391Z,99525.97
2022-08-07T21:36:53.356Z,99523.97
2022-08-07T21:39:45.915Z,99536.69
2022-08-07T21:42:41.739Z,99524.63
2022-08-07T21:46:05.219Z,99519.03
2022-08-07T21:48:27.756Z,99528.41
2022-08-07T21:51:00.780Z,99527.44
2022-08-07T21:53:36.975Z,99523.16
2022-08-07T21:56:36.614Z,99507.50
2022-08-07T21:59:02.642Z,99526.94
2022-08-07T22:02:07.563Z,99527.28
2022-08-07T22:04:28.967Z,99537.00
2022-08-07T22:07:00.555Z,99534.16
2022-08-07T22:09:31.450Z,99520.88
2022-08-07T22:12:12.002Z,99528.25
2022-08-07T22:14:59.268Z,99512.75
2022-08-07T22:17:36.812Z,99490.13
2022-08-07T22:20:23.453Z,99525.53
2022-08-07T22:23:06.262Z,99507.78
2022-08-07T22:25:42.266Z,99517.66
2022-08-07T22:28:31.189Z,99492.97
2022-08-07T22:31:06.822Z,99505.66
2022-08-07T22:33:55.949Z,99520.47
2022-08-07T22:36:33.230Z,99514.59
2022-08-07T22:42:03.752Z,99525.69
2022-08-07T22:44:58.114Z,99521.16
2022-08-07T22:47:49.459Z,99516.25
2022-08-07T22:50:41.279Z,99518.91
2022-08-07T22:54:05.042Z,99515.56
2022-08-07T22:56:09.227Z,99511.44
2022-08-07T22:59:20.192Z,99525.53
2022-08-07T23:01:59.187Z,99520.41
2022-08-07T23:04:58.451Z,99523.97
2022-08-07T23:07:51.509Z,99525.38
2022-08-07T23:10:38.311Z,99520.41
2022-08-07T23:13:29.369Z,99524.91
2022-08-07T23:16:05.548Z,99522.13
2022-08-07T23:18:42.723Z,99519.69
2022-08-07T23:21:21.044Z,99534.22
2022-08-07T23:24:11.033Z,99531.34
2022-08-07T23:26:54.885Z,99530.28
2022-08-07T23:30:38.081Z,99531.47
2022-08-07T23:34:20.880Z,99540.63
2022-08-07T23:35:40.745Z,99516.91
2022-08-07T23:38:36.735Z,99528.97
2022-08-07T23:41:21.060Z,99529.91
2022-08-07T23:44:05.150Z,99518.84
2022-08-07T23:46:51.072Z,99522.44
2022-08-07T23:50:11.922Z,99528.97
2022-08-07T23:52:59.867Z,99523.84
2022-08-07T23:55:51.846Z,99520.25
2022-08-07T23:58:27.367Z,99515.84
